Terminal Aerodrome Forecast
Issued by NWS

Home | Current Version | Previous Version | Text Only | Print | Product List | Glossary On
Versions: 1 2 3 4 5 6 7 8 9 10 11 12 13 14 15 16 17 18
466
FTUS43 KIND 241720
TAFLAF
TAF
KLAF 241720Z 2418/2518 21010KT P6SM SCT040
     FM250000 22008KT P6SM VCTS BKN040CB
     FM250300 22006KT P6SM BKN040 PROB30 2503/2505 4SM TSRA OVC030CB
     FM250500 23006KT 5SM -SHRA VCTS BKN030CB
     FM251100 00000KT 3SM -SHRA VCTS BKN025CB
     FM251200 00000KT P6SM SCT030 BKN110
     FM251500 34004KT P6SM SCT150=

USA.gov is the U.S. government's official web portal to all federal, state and local government web resources and services.